createdAt,value
2018-12-16T00:02:18.061Z,85.07
2018-12-16T00:04:50.781Z,85.40
2018-12-16T00:07:22.427Z,85.07
2018-12-16T00:09:52.364Z,85.39
2018-12-16T00:12:21.840Z,85.15
2018-12-16T00:14:51.836Z,85.20
2018-12-16T00:17:22.170Z,84.97
2018-12-16T00:19:51.834Z,84.73
2018-12-16T00:22:21.668Z,84.97
2018-12-16T00:24:51.246Z,84.38
2018-12-16T00:27:20.867Z,84.67
2018-12-16T00:29:50.270Z,84.54
2018-12-16T00:32:19.948Z,84.28
2018-12-16T00:34:49.506Z,84.23
2018-12-16T00:37:19.631Z,84.88
2018-12-16T00:39:49.026Z,84.96
2018-12-16T00:42:19.204Z,84.70
2018-12-16T00:44:49.423Z,84.92
2018-12-16T00:47:19.090Z,85.01
2018-12-16T00:49:48.754Z,84.80
2018-12-16T00:52:18.193Z,84.64
2018-12-16T00:55:51.214Z,83.89
2018-12-16T00:58:21.859Z,84.19
2018-12-16T01:00:51.501Z,83.58
2018-12-16T01:03:21.197Z,84.20
2018-12-16T01:05:50.726Z,83.90
2018-12-16T01:08:20.683Z,84.00
2018-12-16T01:10:51.764Z,84.28
2018-12-16T01:13:22.071Z,84.03
2018-12-16T01:15:52.161Z,83.91
2018-12-16T01:18:22.391Z,83.98
2018-12-16T01:20:53.086Z,83.87
2018-12-16T01:23:22.816Z,83.70
2018-12-16T01:25:54.089Z,83.48
2018-12-16T01:28:24.158Z,83.78
2018-12-16T01:30:53.588Z,83.55
2018-12-16T01:33:23.452Z,83.63
2018-12-16T01:35:53.712Z,83.28
2018-12-16T01:38:23.166Z,83.85
2018-12-16T01:40:52.922Z,83.34
2018-12-16T01:43:23.293Z,83.23
2018-12-16T01:45:52.566Z,84.01
2018-12-16T01:48:22.011Z,84.98
2018-12-16T01:50:51.586Z,85.10
2018-12-16T01:53:21.198Z,84.52
2018-12-16T01:55:51.501Z,84.49
2018-12-16T01:58:20.923Z,84.73
2018-12-16T02:00:50.857Z,84.58
2018-12-16T02:03:20.122Z,84.43
2018-12-16T02:05:49.383Z,83.77
2018-12-16T02:08:18.741Z,84.29
2018-12-16T02:10:48.987Z,84.21
2018-12-16T02:13:18.551Z,83.65
2018-12-16T02:15:48.068Z,83.61
2018-12-16T02:18:17.513Z,84.13
2018-12-16T02:20:47.133Z,83.71
2018-12-16T02:23:16.723Z,83.52
2018-12-16T02:25:46.046Z,83.75
2018-12-16T02:28:15.483Z,84.21
2018-12-16T02:30:45.386Z,83.70
2018-12-16T02:33:15.508Z,84.39
2018-12-16T02:35:44.984Z,83.65
2018-12-16T02:38:14.407Z,83.84
2018-12-16T02:40:43.867Z,83.56
2018-12-16T02:43:13.372Z,83.18
2018-12-16T02:45:44.197Z,83.35
2018-12-16T02:48:13.838Z,82.26
2018-12-16T02:50:43.101Z,82.02
2018-12-16T02:53:12.629Z,81.71
2018-12-16T02:55:42.523Z,82.13
2018-12-16T02:58:11.782Z,82.46
2018-12-16T03:00:42.026Z,82.97
2018-12-16T03:03:11.923Z,82.65
2018-12-16T03:05:41.268Z,82.30
2018-12-16T03:08:11.640Z,82.89
2018-12-16T03:10:41.404Z,82.36
2018-12-16T03:13:12.058Z,83.27
2018-12-16T03:15:41.702Z,83.04
2018-12-16T03:18:11.405Z,82.54
2018-12-16T03:20:42.852Z,83.20
2018-12-16T03:23:13.739Z,83.43
2018-12-16T03:25:43.963Z,82.70
2018-12-16T03:28:13.224Z,82.85
2018-12-16T03:30:43.483Z,83.22
2018-12-16T03:33:13.494Z,83.13
2018-12-16T03:35:43.672Z,83.15
2018-12-16T03:38:13.223Z,82.61
2018-12-16T03:40:42.963Z,82.90
2018-12-16T03:43:12.322Z,82.74
2018-12-16T03:45:41.640Z,82.84
2018-12-16T03:48:11.662Z,82.83
2018-12-16T03:50:41.938Z,82.57
2018-12-16T03:53:19.511Z,82.97
2018-12-16T03:55:43.838Z,83.04
2018-12-16T03:58:13.393Z,82.16
2018-12-16T04:00:42.859Z,81.86
2018-12-16T04:03:12.095Z,82.48
2018-12-16T04:05:42.105Z,82.81
2018-12-16T04:08:12.337Z,82.44
2018-12-16T04:10:41.911Z,82.19
2018-12-16T04:13:11.434Z,82.55
2018-12-16T04:15:41.937Z,82.26
2018-12-16T04:18:12.084Z,82.67
2018-12-16T04:20:41.494Z,83.82
2018-12-16T04:23:10.921Z,84.25
2018-12-16T04:25:40.843Z,83.80
2018-12-16T04:28:11.925Z,84.39
2018-12-16T04:30:41.259Z,84.70
2018-12-16T04:33:10.963Z,85.08
2018-12-16T04:35:40.719Z,85.16
2018-12-16T04:38:10.442Z,84.82
2018-12-16T04:40:40.001Z,85.69
2018-12-16T04:43:09.400Z,85.62
2018-12-16T04:45:39.404Z,85.42
2018-12-16T04:48:09.567Z,85.64
2018-12-16T04:50:39.123Z,85.84
2018-12-16T04:53:09.189Z,86.62
2018-12-16T04:55:38.619Z,86.08
2018-12-16T04:58:08.493Z,87.09
2018-12-16T05:00:37.879Z,86.47
2018-12-16T05:03:08.009Z,86.69
2018-12-16T05:05:38.152Z,87.20
2018-12-16T05:08:07.608Z,87.28
2018-12-16T05:10:37.419Z,88.52
2018-12-16T05:13:06.825Z,88.53
2018-12-16T05:15:37.005Z,88.15
2018-12-16T05:18:06.340Z,87.98
2018-12-16T05:20:36.444Z,88.20
2018-12-16T05:23:05.765Z,87.64
2018-12-16T05:25:37.659Z,87.85
2018-12-16T05:28:07.283Z,89.24
2018-12-16T05:30:37.063Z,89.51
2018-12-16T05:33:07.370Z,90.25
2018-12-16T05:35:37.581Z,89.59
2018-12-16T05:38:07.819Z,89.40
2018-12-16T05:40:37.982Z,89.29
2018-12-16T05:43:07.289Z,89.64
2018-12-16T05:45:36.552Z,89.41
2018-12-16T05:48:05.850Z,89.68
2018-12-16T05:50:36.058Z,90.20
2018-12-16T05:53:05.758Z,90.50
2018-12-16T05:55:35.160Z,90.30
2018-12-16T05:58:04.638Z,90.44
2018-12-16T06:00:34.055Z,90.20
2018-12-16T06:03:03.843Z,90.61
2018-12-16T06:05:33.352Z,89.79
2018-12-16T06:08:03.570Z,89.57
2018-12-16T06:10:33.440Z,90.05
2018-12-16T06:13:02.966Z,89.92
2018-12-16T06:15:32.310Z,90.70
2018-12-16T06:18:02.104Z,90.42
2018-12-16T06:20:32.466Z,90.17
2018-12-16T06:23:02.697Z,90.87
2018-12-16T06:25:32.799Z,90.91
2018-12-16T06:28:02.508Z,90.70
2018-12-16T06:30:35.573Z,90.68
2018-12-16T06:33:05.557Z,90.63
2018-12-16T06:35:35.110Z,89.72
2018-12-16T06:38:04.658Z,89.97
2018-12-16T06:40:34.993Z,90.27
2018-12-16T06:43:04.495Z,90.41
2018-12-16T06:45:33.970Z,90.24
2018-12-16T06:48:04.457Z,90.61
2018-12-16T06:50:34.037Z,89.99
2018-12-16T06:53:03.962Z,90.55
2018-12-16T06:55:34.188Z,90.54
2018-12-16T06:58:03.522Z,91.81
2018-12-16T07:00:33.732Z,91.26
2018-12-16T07:03:03.758Z,91.20
2018-12-16T07:05:33.160Z,91.47
2018-12-16T07:08:03.099Z,91.10
2018-12-16T07:10:33.589Z,90.29
2018-12-16T07:13:03.408Z,90.37
2018-12-16T07:15:32.983Z,90.49
2018-12-16T07:18:02.922Z,90.29
2018-12-16T07:20:32.397Z,90.98
2018-12-16T07:23:02.543Z,90.91
2018-12-16T07:25:32.803Z,90.82
2018-12-16T07:28:02.854Z,90.92
2018-12-16T07:30:33.334Z,90.93
2018-12-16T07:33:03.359Z,90.47
2018-12-16T07:35:33.413Z,90.61
2018-12-16T07:38:04.155Z,90.96
2018-12-16T07:40:34.195Z,90.97
2018-12-16T07:43:04.214Z,90.37
2018-12-16T07:45:34.189Z,90.39
2018-12-16T07:48:04.570Z,91.55
2018-12-16T07:50:35.090Z,91.26
2018-12-16T07:53:05.448Z,90.87
2018-12-16T07:55:35.535Z,90.61
2018-12-16T07:58:06.263Z,91.27
2018-12-16T08:00:38.181Z,91.13
2018-12-16T08:03:08.529Z,90.61
2018-12-16T08:05:38.187Z,90.38
2018-12-16T08:08:07.887Z,90.35
2018-12-16T08:10:37.902Z,90.81
2018-12-16T08:13:08.703Z,89.90
2018-12-16T08:15:41.402Z,90.35
2018-12-16T08:18:11.804Z,89.76
2018-12-16T08:20:41.905Z,88.79
2018-12-16T08:23:11.717Z,89.62
2018-12-16T08:25:42.487Z,88.70
2018-12-16T08:28:13.448Z,88.67
2018-12-16T08:30:43.619Z,89.47
2018-12-16T08:33:13.835Z,89.57
2018-12-16T08:35:45.197Z,89.66
2018-12-16T08:38:15.510Z,88.64
2018-12-16T08:40:45.657Z,88.07
2018-12-16T08:43:16.313Z,88.38
2018-12-16T08:45:46.164Z,87.98
2018-12-16T08:48:16.104Z,87.59
2018-12-16T08:50:47.369Z,88.03
2018-12-16T08:53:17.423Z,87.30
2018-12-16T08:55:48.628Z,87.68
2018-12-16T08:58:19.066Z,86.18
2018-12-16T09:00:48.884Z,85.65
2018-12-16T09:03:19.259Z,85.57
2018-12-16T09:05:49.340Z,84.82
2018-12-16T09:08:19.417Z,83.69
2018-12-16T09:10:50.104Z,83.45
2018-12-16T09:13:20.083Z,83.59
2018-12-16T09:15:50.460Z,84.96
2018-12-16T09:18:21.399Z,84.96
2018-12-16T09:20:50.863Z,85.73
2018-12-16T09:23:20.521Z,84.64
2018-12-16T09:25:49.999Z,84.79
2018-12-16T09:28:19.363Z,84.91
2018-12-16T09:30:49.560Z,85.14
2018-12-16T09:33:20.570Z,85.43
2018-12-16T09:35:50.770Z,85.41
2018-12-16T09:38:20.587Z,85.85
2018-12-16T09:40:50.303Z,85.56
2018-12-16T09:43:20.859Z,85.14
2018-12-16T09:45:50.374Z,85.04
2018-12-16T09:48:20.349Z,83.86
2018-12-16T09:50:49.965Z,83.22
2018-12-16T09:53:19.403Z,82.32
2018-12-16T09:55:50.210Z,82.50
2018-12-16T09:58:19.811Z,81.47
2018-12-16T10:00:49.391Z,80.70
2018-12-16T10:03:19.075Z,80.46
2018-12-16T10:05:49.227Z,80.53
2018-12-16T10:08:19.433Z,80.34
2018-12-16T10:10:50.408Z,81.17
2018-12-16T10:13:20.181Z,80.98
2018-12-16T10:15:49.981Z,81.26
2018-12-16T10:18:20.173Z,82.06
2018-12-16T10:20:49.707Z,81.98
2018-12-16T10:23:19.519Z,82.45
2018-12-16T10:25:49.858Z,83.07
2018-12-16T10:28:19.242Z,83.29
2018-12-16T10:30:49.424Z,84.14
2018-12-16T10:33:19.399Z,83.43
2018-12-16T10:35:48.829Z,82.96
2018-12-16T10:38:18.779Z,82.29
2018-12-16T10:40:48.367Z,81.41
2018-12-16T10:43:18.912Z,80.76
2018-12-16T10:45:48.476Z,79.69
2018-12-16T10:48:18.070Z,78.51
2018-12-16T10:50:47.953Z,78.11
2018-12-16T10:53:17.374Z,76.24
2018-12-16T10:55:47.215Z,75.10
2018-12-16T10:58:16.589Z,72.45
2018-12-16T11:00:52.286Z,70.58
2018-12-16T11:03:21.734Z,66.24
2018-12-16T11:05:52.005Z,63.93
2018-12-16T11:08:21.299Z,64.06
2018-12-16T11:10:51.007Z,65.48
2018-12-16T11:13:20.701Z,65.17
2018-12-16T11:15:50.087Z,61.56
2018-12-16T11:18:21.159Z,59.06
2018-12-16T11:20:53.288Z,57.16
2018-12-16T11:23:23.353Z,58.92
2018-12-16T11:25:54.497Z,60.82
2018-12-16T11:28:24.914Z,64.00
2018-12-16T11:30:54.826Z,64.61
2018-12-16T11:33:24.350Z,65.58
2018-12-16T11:35:54.257Z,64.84
2018-12-16T11:38:24.490Z,62.24
2018-12-16T11:40:54.089Z,61.64
2018-12-16T11:43:24.012Z,60.95
2018-12-16T11:45:53.481Z,61.41
2018-12-16T11:48:23.256Z,60.87
2018-12-16T11:50:53.037Z,61.03
2018-12-16T11:53:22.814Z,59.77
2018-12-16T11:55:52.251Z,61.75
2018-12-16T11:58:21.797Z,62.43
2018-12-16T12:00:51.861Z,63.17
2018-12-16T12:03:21.902Z,63.68
2018-12-16T12:05:53.892Z,63.47
2018-12-16T12:08:23.661Z,62.42
2018-12-16T12:10:53.401Z,62.88
2018-12-16T12:13:23.620Z,61.75
2018-12-16T12:15:53.759Z,60.69
2018-12-16T12:18:23.761Z,61.10
2018-12-16T12:20:54.169Z,61.02
2018-12-16T12:23:24.332Z,62.19
2018-12-16T12:25:54.531Z,63.30
2018-12-16T12:28:24.556Z,64.46
2018-12-16T12:30:54.691Z,65.89
2018-12-16T12:33:25.542Z,68.43
2018-12-16T12:35:55.362Z,68.95
2018-12-16T12:38:25.456Z,69.00
2018-12-16T12:40:55.766Z,69.78
2018-12-16T12:43:26.038Z,69.77
2018-12-16T12:45:56.157Z,72.05
2018-12-16T12:48:26.431Z,72.83
2018-12-16T12:50:56.422Z,73.29
2018-12-16T12:53:26.793Z,74.21
2018-12-16T12:55:56.942Z,73.66
2018-12-16T12:58:26.981Z,74.26
2018-12-16T13:00:57.157Z,73.60
2018-12-16T13:03:27.273Z,73.76
2018-12-16T13:05:58.073Z,73.71
2018-12-16T13:08:27.878Z,73.62
2018-12-16T13:10:58.087Z,73.25
2018-12-16T13:13:27.979Z,72.53
2018-12-16T13:15:59.254Z,72.81
2018-12-16T13:18:30.784Z,72.17
2018-12-16T13:21:01.873Z,73.07
2018-12-16T13:23:32.118Z,72.89
2018-12-16T13:26:04.493Z,72.74
2018-12-16T13:28:35.483Z,72.35
2018-12-16T13:31:05.429Z,72.13
2018-12-16T13:33:35.647Z,72.23
2018-12-16T13:36:06.527Z,71.69
2018-12-16T13:38:37.133Z,71.88
2018-12-16T13:41:07.389Z,72.70
2018-12-16T13:43:38.615Z,72.80
2018-12-16T13:46:08.649Z,72.93
2018-12-16T13:48:38.752Z,73.04
2018-12-16T13:51:08.577Z,73.27
2018-12-16T13:53:38.203Z,74.07
2018-12-16T13:56:08.008Z,73.79
2018-12-16T13:58:37.790Z,74.03
2018-12-16T14:01:07.868Z,74.98
2018-12-16T14:03:37.981Z,75.57
2018-12-16T14:06:08.372Z,75.22
2018-12-16T14:08:38.395Z,75.01
2018-12-16T14:11:08.202Z,75.68
2018-12-16T14:13:38.294Z,76.13
2018-12-16T14:16:08.007Z,76.26
2018-12-16T14:18:38.695Z,76.29
2018-12-16T14:21:08.368Z,76.53
2018-12-16T14:23:38.622Z,76.65
2018-12-16T14:26:07.974Z,76.88
2018-12-16T14:28:37.832Z,76.72
2018-12-16T14:31:08.391Z,77.52
2018-12-16T14:33:38.169Z,77.44
2018-12-16T14:36:07.539Z,77.88
2018-12-16T14:38:37.081Z,78.86
2018-12-16T14:41:06.892Z,79.72
2018-12-16T14:43:37.303Z,79.28
2018-12-16T14:46:07.172Z,80.21
2018-12-16T14:48:37.655Z,80.86
2018-12-16T14:51:07.792Z,81.93
2018-12-16T14:53:37.837Z,81.87
2018-12-16T14:56:08.198Z,82.91
2018-12-16T14:58:37.989Z,83.86
2018-12-16T15:01:08.606Z,83.86
2018-12-16T15:03:38.048Z,84.55
2018-12-16T15:06:08.020Z,83.53
2018-12-16T15:08:37.605Z,83.92
2018-12-16T15:11:07.494Z,83.90
2018-12-16T15:13:37.672Z,84.27
2018-12-16T15:16:08.000Z,84.25
2018-12-16T15:18:37.954Z,84.82
2018-12-16T15:21:08.334Z,84.42
2018-12-16T15:23:38.124Z,85.41
2018-12-16T15:26:07.665Z,86.84
2018-12-16T15:28:37.121Z,86.95
2018-12-16T15:31:06.886Z,86.51
2018-12-16T15:33:36.231Z,87.80
2018-12-16T15:36:05.639Z,86.93
2018-12-16T15:38:35.687Z,86.60
2018-12-16T15:41:05.956Z,86.86
2018-12-16T15:43:36.046Z,87.17
2018-12-16T15:46:06.435Z,87.14
2018-12-16T15:48:36.168Z,86.74
2018-12-16T15:51:05.733Z,86.99
2018-12-16T15:53:36.768Z,87.04
2018-12-16T15:56:09.539Z,87.50
2018-12-16T15:58:40.072Z,87.43
2018-12-16T16:01:09.655Z,87.56
2018-12-16T16:03:39.954Z,87.64
2018-12-16T16:06:09.937Z,87.84
2018-12-16T16:08:40.323Z,88.29
2018-12-16T16:11:10.224Z,88.07
2018-12-16T16:13:40.427Z,88.17
2018-12-16T16:16:11.080Z,87.82
2018-12-16T16:18:40.711Z,87.80
2018-12-16T16:21:11.050Z,88.00
2018-12-16T16:23:40.642Z,88.06
2018-12-16T16:26:16.195Z,88.74
2018-12-16T16:28:42.596Z,88.33
2018-12-16T16:31:12.152Z,88.12
2018-12-16T16:33:41.982Z,87.27
2018-12-16T16:36:12.323Z,87.32
2018-12-16T16:38:42.481Z,88.20
2018-12-16T16:41:12.196Z,88.20
2018-12-16T16:43:41.917Z,89.06
2018-12-16T16:46:12.230Z,89.07
2018-12-16T16:48:42.193Z,89.13
2018-12-16T16:51:12.511Z,89.07
2018-12-16T16:53:42.618Z,89.23
2018-12-16T16:56:12.162Z,89.45
2018-12-16T16:58:41.888Z,89.81
2018-12-16T17:01:11.518Z,89.74
2018-12-16T17:03:41.336Z,89.44
2018-12-16T17:06:11.954Z,88.86
2018-12-16T17:08:42.004Z,89.64
2018-12-16T17:11:11.853Z,89.31
2018-12-16T17:13:41.489Z,89.21
2018-12-16T17:16:13.552Z,89.32
2018-12-16T17:18:45.623Z,89.45
2018-12-16T17:21:15.014Z,89.44
2018-12-16T17:23:44.749Z,89.84
2018-12-16T17:26:14.250Z,90.17
2018-12-16T17:28:44.297Z,89.56
2018-12-16T17:31:14.548Z,90.08
2018-12-16T17:33:44.073Z,89.80
2018-12-16T17:36:14.135Z,89.87
2018-12-16T17:38:43.797Z,89.73
2018-12-16T17:41:13.354Z,90.12
2018-12-16T17:43:43.681Z,90.15
2018-12-16T17:46:13.928Z,90.32
2018-12-16T17:48:44.088Z,90.36
2018-12-16T17:51:14.257Z,90.22
2018-12-16T17:53:44.585Z,90.07
2018-12-16T17:56:14.368Z,90.16
2018-12-16T17:58:43.933Z,90.11
2018-12-16T18:01:13.686Z,90.54
2018-12-16T18:03:43.345Z,91.05
2018-12-16T18:06:12.793Z,91.42
2018-12-16T18:08:42.963Z,91.38
2018-12-16T18:11:13.017Z,91.44
2018-12-16T18:13:42.861Z,90.86
2018-12-16T18:16:12.358Z,92.02
2018-12-16T18:18:42.466Z,91.61
2018-12-16T18:21:13.529Z,91.69
2018-12-16T18:23:43.850Z,91.68
2018-12-16T18:26:13.357Z,91.82
2018-12-16T18:28:43.343Z,91.36
2018-12-16T18:31:12.825Z,91.67
2018-12-16T18:33:42.688Z,91.84
2018-12-16T18:36:13.157Z,92.11
2018-12-16T18:38:42.990Z,92.36
2018-12-16T18:41:13.327Z,93.03
2018-12-16T18:43:43.633Z,93.09
2018-12-16T18:46:13.805Z,93.66
2018-12-16T18:48:44.063Z,93.45
2018-12-16T18:51:14.695Z,92.85
2018-12-16T18:53:44.219Z,92.81
2018-12-16T18:56:14.452Z,92.97
2018-12-16T18:58:43.984Z,92.93
2018-12-16T19:01:15.069Z,92.96
2018-12-16T19:03:44.872Z,92.62
2018-12-16T19:06:14.323Z,92.79
2018-12-16T19:08:43.769Z,92.65
2018-12-16T19:11:13.699Z,92.93
2018-12-16T19:13:43.462Z,93.77
2018-12-16T19:16:13.781Z,93.77
2018-12-16T19:18:43.671Z,93.63
2018-12-16T19:21:13.812Z,93.74
2018-12-16T19:23:43.718Z,93.91
2018-12-16T19:26:13.391Z,93.71
2018-12-16T19:28:43.272Z,93.57
2018-12-16T19:31:13.557Z,93.84
2018-12-16T19:33:43.558Z,94.01
2018-12-16T19:36:13.086Z,94.00
2018-12-16T19:38:44.158Z,93.57
2018-12-16T19:41:14.838Z,93.66
2018-12-16T19:43:44.634Z,93.46
2018-12-16T19:46:14.484Z,93.58
2018-12-16T19:48:44.084Z,93.52
2018-12-16T19:51:14.262Z,92.89
2018-12-16T19:53:44.327Z,93.44
2018-12-16T19:56:15.520Z,93.11
2018-12-16T19:58:45.846Z,92.81
2018-12-16T20:01:15.823Z,93.30
2018-12-16T20:03:51.227Z,93.32
2018-12-16T20:06:26.910Z,93.38
2018-12-16T20:08:57.361Z,93.48
2018-12-16T20:11:27.503Z,92.91
2018-12-16T20:13:57.693Z,92.99
2018-12-16T20:16:28.225Z,92.95
2018-12-16T20:18:57.969Z,93.22
2018-12-16T20:21:28.025Z,92.92
2018-12-16T20:23:58.520Z,92.78
2018-12-16T20:26:28.545Z,93.27
2018-12-16T20:28:59.940Z,93.14
2018-12-16T20:31:29.939Z,93.18
2018-12-16T20:34:00.314Z,93.04
2018-12-16T20:36:30.145Z,93.18
2018-12-16T20:39:00.555Z,92.90
2018-12-16T20:41:30.794Z,93.51
2018-12-16T20:44:00.637Z,93.25
2018-12-16T20:46:31.579Z,93.21
2018-12-16T20:49:01.210Z,93.50
2018-12-16T20:51:30.557Z,93.27
2018-12-16T20:54:00.535Z,93.43
2018-12-16T20:56:30.669Z,93.85
2018-12-16T20:59:01.367Z,93.85
2018-12-16T21:01:31.499Z,93.31
2018-12-16T21:04:01.484Z,93.53
2018-12-16T21:06:31.743Z,93.91
2018-12-16T21:09:01.765Z,94.09
2018-12-16T21:11:37.843Z,94.04
2018-12-16T21:14:12.872Z,93.41
2018-12-16T21:16:47.508Z,93.71
2018-12-16T21:19:18.250Z,93.70
2018-12-16T21:21:48.593Z,94.16
2018-12-16T21:24:19.390Z,94.25
2018-12-16T21:26:50.365Z,94.02
2018-12-16T21:29:20.187Z,93.98
2018-12-16T21:31:50.351Z,94.21
2018-12-16T21:34:20.301Z,94.92
2018-12-16T21:36:50.593Z,93.93
2018-12-16T21:39:21.416Z,93.76
2018-12-16T21:41:51.064Z,93.96
2018-12-16T21:44:20.524Z,93.73
2018-12-16T21:46:50.022Z,93.87
2018-12-16T21:49:19.655Z,94.63
2018-12-16T21:51:51.051Z,95.27
2018-12-16T21:54:20.988Z,94.37
2018-12-16T21:56:50.667Z,94.52
2018-12-16T21:59:21.344Z,94.15
2018-12-16T22:01:50.845Z,93.64
2018-12-16T22:04:20.769Z,94.10
2018-12-16T22:06:51.016Z,93.98
2018-12-16T22:09:21.083Z,94.56
2018-12-16T22:11:50.598Z,94.10
2018-12-16T22:14:20.805Z,94.70
2018-12-16T22:16:50.850Z,94.87
2018-12-16T22:19:20.930Z,95.08
2018-12-16T22:21:51.206Z,94.78
2018-12-16T22:24:21.400Z,95.68
2018-12-16T22:26:51.184Z,94.52
2018-12-16T22:29:21.799Z,94.48
2018-12-16T22:31:51.165Z,94.91
2018-12-16T22:34:22.274Z,95.32
2018-12-16T22:36:51.590Z,94.65
2018-12-16T22:39:22.161Z,94.96
2018-12-16T22:41:51.747Z,94.52
2018-12-16T22:44:22.036Z,95.76
2018-12-16T23:09:09.328Z,96.94
2018-12-16T23:14:18.733Z,96.36
2018-12-16T23:16:48.597Z,96.15
2018-12-16T23:19:17.887Z,96.43
2018-12-16T23:21:47.249Z,95.80
2018-12-16T23:24:17.594Z,95.41
2018-12-16T23:26:47.843Z,95.17
2018-12-16T23:29:17.710Z,95.69
2018-12-16T23:31:48.071Z,95.85
2018-12-16T23:34:17.953Z,96.23
2018-12-16T23:36:47.290Z,96.04
2018-12-16T23:39:16.626Z,96.03
2018-12-16T23:41:45.998Z,96.71
2018-12-16T23:44:15.327Z,95.79
2018-12-16T23:46:44.844Z,95.91
2018-12-16T23:49:14.310Z,95.82
2018-12-16T23:51:43.665Z,95.73
2018-12-16T23:54:13.018Z,95.57
2018-12-16T23:56:42.646Z,95.65
2018-12-16T23:59:12.234Z,95.62
